This is the latest recevied weather packets stored in our database for station/object VU3YEJ-WX. If no packets are shown the sender has not sent any weather packets the latest 10 day(s).
| Time | Temp. | Humidity | Pressure | Rain* | Wind** | Luminosity | Snow |
|---|---|---|---|---|---|---|---|
| 1787905244 | 27.22° C | 79% | 1012 hPa | - | - | - | - |
| 1787901644 | 27.78° C | 74% | 1013 hPa | - | - | - | - |
| 1787899844 | 27.78° C | 84% | 1013 hPa | - | - | - | - |
| 1787898046 | 26.11° C | 84% | 1013 hPa | - | - | - | - |
| 1787896243 | 26.11° C | 84% | 1013 hPa | - | - | - | - |
| 1787894445 | 27.22° C | 79% | 1013 hPa | - | - | - | - |
| 1787892644 | 25° C | 94% | 1013 hPa | - | - | - | - |
| 1787889044 | 26.11° C | 89% | 1013 hPa | - | - | - | - |
| 1787887244 | 25° C | 89% | 1013 hPa | - | - | - | - |
| 1787885444 | 23.89° C | 94% | 1013 hPa | - | - | - | - |
| 1787883644 | 22.78° C | 100% | 1013 hPa | - | - | - | - |
| 1787880044 | 22.22° C | 100% | 1012 hPa | - | - | - | - |
| 1787878252 | 22.22° C | 100% | 1012 hPa | - | - | - | - |
| 1787876444 | 22.78° C | 100% | 1012 hPa | - | - | - | - |
| 1787874644 | 22.78° C | 100% | 1011 hPa | - | - | - | - |
| 1787871045 | 22.78° C | 100% | 1011 hPa | - | - | - | - |
| 1787867443 | 22.78° C | 100% | 1011 hPa | - | - | - | - |
| 1787865644 | 22.78° C | 100% | 1011 hPa | - | - | - | - |
| 1787863843 | 22.78° C | 100% | 1012 hPa | - | - | - | - |
| 1787860244 | 22.78° C | 100% | 1012 hPa | - | - | - | - |
| 1787854844 | 22.78° C | 100% | 1013 hPa | - | - | - | - |
| 1787853044 | 22.78° C | 100% | 1014 hPa | - | - | - | - |
| 1787849444 | 22.22° C | 100% | 1014 hPa | - | - | - | - |
| 1787845845 | 22.22° C | 100% | 1013 hPa | - | - | - | - |
| 1787844044 | 22.78° C | 100% | 1013 hPa | - | - | - | - |
* Rain since midnight (hover to see other rain measurements)
** Current wind speed in m/s (hover to see current wind gust speed)